createdAt,value
2018-01-22T00:02:23.463Z,11.40
2018-01-22T00:04:57.070Z,15.05
2018-01-22T00:07:30.703Z,16.40
2018-01-22T00:10:04.277Z,13.27
2018-01-22T00:12:37.832Z,14.25
2018-01-22T00:15:11.462Z,13.90
2018-01-22T00:17:44.964Z,8.43
2018-01-22T00:20:18.506Z,10.23
2018-01-22T00:22:52.201Z,11.65
2018-01-22T00:25:25.773Z,10.40
2018-01-22T00:27:59.361Z,26.98
2018-01-22T00:30:33.020Z,28.42
2018-01-22T00:33:06.711Z,41.70
2018-01-22T00:35:41.000Z,19.92
2018-01-22T00:38:14.468Z,10.38
2018-01-22T00:40:48.111Z,15.75
2018-01-22T00:43:21.678Z,16.17
2018-01-22T00:45:55.196Z,8.45
2018-01-22T00:48:28.713Z,13.05
2018-01-22T00:51:02.407Z,8.93
2018-01-22T00:53:36.103Z,9.80
2018-01-22T00:56:10.415Z,8.90
2018-01-22T00:58:44.007Z,9.63
2018-01-22T01:01:17.552Z,7.15
2018-01-22T01:03:51.088Z,8.43
2018-01-22T01:06:24.682Z,9.40
2018-01-22T01:08:58.304Z,12.35
2018-01-22T01:11:31.888Z,9.20
2018-01-22T01:14:05.532Z,11.40
2018-01-22T01:16:39.222Z,12.30
2018-01-22T01:19:12.824Z,9.50
2018-01-22T01:21:46.395Z,10.35
2018-01-22T01:24:19.995Z,10.77
2018-01-22T01:26:53.517Z,8.98
2018-01-22T01:29:27.127Z,26.85
2018-01-22T01:32:00.823Z,40.80
2018-01-22T01:34:34.428Z,35.28
2018-01-22T01:37:08.735Z,39.33
2018-01-22T01:39:42.301Z,30.37
2018-01-22T01:42:15.842Z,8.07
2018-01-22T01:44:49.529Z,9.23
2018-01-22T01:47:23.123Z,5.28
2018-01-22T01:49:56.639Z,6.30
2018-01-22T01:52:30.231Z,9.68
2018-01-22T01:55:03.822Z,9.95
2018-01-22T01:57:38.258Z,4.28
2018-01-22T02:00:11.963Z,6.30
2018-01-22T02:02:45.533Z,5.55
2018-01-22T02:05:19.148Z,4.80
2018-01-22T02:07:52.731Z,5.43
2018-01-22T02:10:26.360Z,5.37
2018-01-22T02:12:59.969Z,7.07
2018-01-22T02:15:33.589Z,5.68
2018-01-22T02:18:07.229Z,4.93
2018-01-22T02:20:41.700Z,6.90
2018-01-22T02:23:15.383Z,4.03
2018-01-22T02:25:48.929Z,6.62
2018-01-22T02:28:22.516Z,4.97
2018-01-22T02:30:56.816Z,4.82
2018-01-22T02:33:30.524Z,29.45
2018-01-22T02:36:04.103Z,28.48
2018-01-22T02:38:37.673Z,24.80
2018-01-22T02:41:11.232Z,11.88
2018-01-22T02:43:44.800Z,10.63
2018-01-22T02:46:18.514Z,2.53
2018-01-22T02:48:52.032Z,2.35
2018-01-22T02:51:25.601Z,2.70
2018-01-22T02:53:59.138Z,3.20
2018-01-22T02:56:32.728Z,2.58
2018-01-22T02:59:06.419Z,4.95
2018-01-22T03:01:40.941Z,3.10
2018-01-22T03:04:14.656Z,2.58
2018-01-22T03:06:48.226Z,2.72
2018-01-22T03:09:21.812Z,2.28
2018-01-22T03:11:56.152Z,2.45
2018-01-22T03:14:29.744Z,2.90
2018-01-22T03:17:03.291Z,2.50
2018-01-22T03:19:36.963Z,2.78
2018-01-22T03:26:44.072Z,1.52
2018-01-22T03:29:17.647Z,3.35
2018-01-22T03:31:51.406Z,2.00
2018-01-22T03:34:24.904Z,2.47
2018-01-22T03:36:58.484Z,2.05
2018-01-22T03:39:32.067Z,2.20
2018-01-22T03:42:05.727Z,2.10
2018-01-22T03:44:40.086Z,3.45
2018-01-22T03:47:14.521Z,6.47
2018-01-22T03:49:48.251Z,31.62
2018-01-22T03:52:21.959Z,41.90
2018-01-22T03:54:55.535Z,10.73
2018-01-22T03:57:29.037Z,12.65
2018-01-22T04:00:02.549Z,3.92
2018-01-22T04:02:36.356Z,3.55
2018-01-22T04:05:10.028Z,2.25
2018-01-22T04:07:43.548Z,1.20
2018-01-22T04:10:17.831Z,2.08
2018-01-22T04:12:51.455Z,1.12
2018-01-22T04:15:25.178Z,3.17
2018-01-22T04:17:58.747Z,3.70
2018-01-22T04:20:32.335Z,1.20
2018-01-22T04:23:05.967Z,1.52
2018-01-22T04:25:39.570Z,1.77
2018-01-22T04:28:13.104Z,1.62
2018-01-22T04:30:46.723Z,1.50
2018-01-22T04:33:21.163Z,1.58
2018-01-22T04:35:55.473Z,1.58
2018-01-22T04:38:29.227Z,1.67
2018-01-22T04:41:02.719Z,2.65
2018-01-22T04:43:36.390Z,2.50
2018-01-22T04:46:10.082Z,3.80
2018-01-22T04:48:43.597Z,3.33
2018-01-22T04:51:17.203Z,8.85
2018-01-22T04:53:50.782Z,31.33
2018-01-22T04:56:24.325Z,29.08
2018-01-22T04:58:57.897Z,11.23
2018-01-22T05:01:31.470Z,8.02
2018-01-22T05:04:05.074Z,3.50
2018-01-22T05:06:38.705Z,1.50
2018-01-22T05:09:13.115Z,2.85
2018-01-22T05:11:46.721Z,1.25
2018-01-22T05:14:20.312Z,1.50
2018-01-22T05:16:53.852Z,1.48
2018-01-22T05:19:28.156Z,6.22
2018-01-22T05:22:02.660Z,2.12
2018-01-22T05:24:36.967Z,3.65
2018-01-22T05:27:10.685Z,2.17
2018-01-22T05:29:44.961Z,1.30
2018-01-22T05:32:18.700Z,2.35
2018-01-22T05:34:52.179Z,1.20
2018-01-22T05:37:25.804Z,1.50
2018-01-22T05:40:00.156Z,3.15
2018-01-22T05:42:33.857Z,1.70
2018-01-22T05:45:07.399Z,1.95
2018-01-22T05:47:41.006Z,1.42
2018-01-22T05:50:15.359Z,8.73
2018-01-22T05:52:49.061Z,26.27
2018-01-22T05:55:22.638Z,30.23
2018-01-22T05:57:56.223Z,26.62
2018-01-22T06:00:29.819Z,12.15
2018-01-22T06:03:03.348Z,1.67
2018-01-22T06:05:37.079Z,2.17
2018-01-22T06:08:10.653Z,1.70
2018-01-22T06:10:44.236Z,1.52
2018-01-22T06:13:17.849Z,1.52
2018-01-22T06:15:51.365Z,1.65
2018-01-22T06:18:25.061Z,1.30
2018-01-22T06:20:59.479Z,2.05
2018-01-22T06:23:33.069Z,1.08
2018-01-22T06:26:06.676Z,3.45
2018-01-22T06:28:41.111Z,1.77
2018-01-22T06:31:14.781Z,2.33
2018-01-22T06:33:48.290Z,3.50
2018-01-22T06:36:21.864Z,4.03
2018-01-22T06:38:55.463Z,1.52
2018-01-22T06:41:29.220Z,1.85
2018-01-22T06:44:02.793Z,3.53
2018-01-22T06:46:36.294Z,2.47
2018-01-22T06:49:10.602Z,3.92
2018-01-22T06:51:44.340Z,5.53
2018-01-22T06:54:17.815Z,23.08
2018-01-22T06:56:52.187Z,78.68
2018-01-22T06:59:25.733Z,25.77
2018-01-22T07:02:00.242Z,15.55
2018-01-22T07:04:33.848Z,4.40
2018-01-22T07:07:07.379Z,2.37
2018-01-22T07:09:40.943Z,2.58
2018-01-22T07:12:14.547Z,4.40
2018-01-22T07:14:48.279Z,3.78
2018-01-22T07:17:21.875Z,3.97
2018-01-22T07:19:55.428Z,4.30
2018-01-22T07:22:29.675Z,3.15
2018-01-22T07:25:03.295Z,2.40
2018-01-22T07:27:36.870Z,2.45
2018-01-22T07:30:10.553Z,3.17
2018-01-22T07:32:44.064Z,3.55
2018-01-22T07:35:17.814Z,4.53
2018-01-22T07:37:52.199Z,2.25
2018-01-22T07:40:26.508Z,2.95
2018-01-22T07:43:00.842Z,2.95
2018-01-22T07:45:34.354Z,3.35
2018-01-22T07:48:08.036Z,4.20
2018-01-22T07:50:41.511Z,2.92
2018-01-22T07:53:15.028Z,5.93
2018-01-22T07:55:48.610Z,20.37
2018-01-22T07:58:22.304Z,30.80
2018-01-22T08:00:56.008Z,149.18
2018-01-22T08:03:29.632Z,62.22
2018-01-22T08:06:03.148Z,26.92
2018-01-22T08:08:37.552Z,27.48
2018-01-22T08:11:11.380Z,11.02
2018-01-22T08:13:44.951Z,10.45
2018-01-22T08:16:18.456Z,24.15
2018-01-22T08:18:52.999Z,25.60
2018-01-22T08:21:26.535Z,18.12
2018-01-22T08:24:00.177Z,13.48
2018-01-22T08:26:33.809Z,13.10
2018-01-22T08:29:07.508Z,11.40
2018-01-22T08:31:41.802Z,16.75
2018-01-22T08:34:15.407Z,7.25
2018-01-22T08:36:48.987Z,8.70
2018-01-22T08:39:22.555Z,8.00
2018-01-22T08:41:56.911Z,8.73
2018-01-22T08:44:31.354Z,13.75
2018-01-22T08:47:04.931Z,14.85
2018-01-22T08:49:38.521Z,14.00
2018-01-22T08:52:12.135Z,9.60
2018-01-22T08:54:45.751Z,23.83
2018-01-22T08:57:19.226Z,18.35
2018-01-22T08:59:52.943Z,44.50
2018-01-22T09:02:26.710Z,51.37
2018-01-22T09:05:00.244Z,15.13
2018-01-22T09:07:34.555Z,17.73
2018-01-22T09:10:08.175Z,10.80
2018-01-22T09:12:41.834Z,10.63
2018-01-22T09:15:15.399Z,19.58
2018-01-22T09:17:48.993Z,28.73
2018-01-22T09:20:22.535Z,27.55
2018-01-22T09:22:56.483Z,35.90
2018-01-22T09:25:29.998Z,21.60
2018-01-22T09:28:03.507Z,20.17
2018-01-22T09:30:38.219Z,19.70
2018-01-22T09:33:11.838Z,21.45
2018-01-22T09:35:45.371Z,17.00
2018-01-22T09:38:19.028Z,20.33
2018-01-22T09:40:52.596Z,26.95
2018-01-22T09:43:26.185Z,19.92
2018-01-22T09:45:59.807Z,15.18
2018-01-22T09:48:33.319Z,11.18
2018-01-22T09:51:06.981Z,41.35
2018-01-22T09:53:40.532Z,20.45
2018-01-22T09:56:14.087Z,18.42
2018-01-22T09:58:47.641Z,29.58
2018-01-22T10:01:21.219Z,42.58
2018-01-22T10:03:54.786Z,35.97
2018-01-22T10:06:28.326Z,16.67
2018-01-22T10:09:02.067Z,17.35
2018-01-22T10:11:35.606Z,10.30
2018-01-22T10:14:09.075Z,11.27
2018-01-22T10:16:43.511Z,15.77
2018-01-22T10:19:17.114Z,14.23
2018-01-22T10:21:50.727Z,29.35
2018-01-22T10:24:24.423Z,26.48
2018-01-22T10:26:58.119Z,13.45
2018-01-22T10:29:31.628Z,15.13
2018-01-22T10:32:05.297Z,10.18
2018-01-22T10:34:38.828Z,7.30
2018-01-22T10:37:12.499Z,7.75
2018-01-22T10:39:46.048Z,10.05
2018-01-22T10:42:19.612Z,7.80
2018-01-22T10:44:53.167Z,11.80
2018-01-22T10:47:26.759Z,16.20
2018-01-22T10:50:00.447Z,6.78
2018-01-22T10:52:34.031Z,10.90
2018-01-22T10:55:08.318Z,12.52
2018-01-22T10:57:41.951Z,20.30
2018-01-22T11:00:15.548Z,56.40
2018-01-22T11:02:49.128Z,51.65
2018-01-22T11:05:22.803Z,43.70
2018-01-22T11:07:56.431Z,27.05
2018-01-22T11:10:30.191Z,18.98
2018-01-22T11:13:03.737Z,14.50
2018-01-22T11:15:43.131Z,14.73
2018-01-22T11:18:16.618Z,17.67
2018-01-22T11:20:50.317Z,12.80
2018-01-22T11:23:23.901Z,11.98
2018-01-22T11:25:57.424Z,23.02
2018-01-22T11:28:31.014Z,32.80
2018-01-22T11:31:04.598Z,20.80
2018-01-22T11:33:38.231Z,28.85
2018-01-22T11:36:11.811Z,37.25
2018-01-22T11:38:45.372Z,7.68
2018-01-22T11:41:19.819Z,11.07
2018-01-22T11:43:53.331Z,8.63
2018-01-22T11:46:27.076Z,4.97
2018-01-22T11:49:00.603Z,5.75
2018-01-22T11:51:34.325Z,45.25
2018-01-22T11:54:07.915Z,13.48
2018-01-22T11:56:41.622Z,8.15
2018-01-22T11:59:15.402Z,20.73
2018-01-22T12:01:48.982Z,43.65
2018-01-22T12:04:23.267Z,49.03
2018-01-22T12:06:56.852Z,83.35
2018-01-22T12:09:30.415Z,81.00
2018-01-22T12:12:03.955Z,63.42
2018-01-22T12:14:37.475Z,40.30
2018-01-22T12:17:11.012Z,10.90
2018-01-22T12:19:44.504Z,4.80
2018-01-22T12:22:18.071Z,190.48
2018-01-22T12:24:51.736Z,1.35
2018-01-22T12:27:25.230Z,0.98
2018-01-22T12:29:59.662Z,0.73
2018-01-22T12:32:33.970Z,0.60
2018-01-22T12:35:07.692Z,15.02
2018-01-22T12:37:41.163Z,2.45
2018-01-22T12:40:14.819Z,1.30
2018-01-22T12:42:48.376Z,4.05
2018-01-22T12:45:21.950Z,3.42
2018-01-22T12:47:56.352Z,4.53
2018-01-22T12:50:29.847Z,5.60
2018-01-22T12:53:03.405Z,9.63
2018-01-22T12:55:37.071Z,17.70
2018-01-22T12:58:10.727Z,12.10
2018-01-22T13:00:44.232Z,24.52
2018-01-22T13:03:17.882Z,35.15
2018-01-22T13:05:52.130Z,30.95
2018-01-22T13:08:25.825Z,10.07
2018-01-22T13:10:59.544Z,2.17
2018-01-22T13:13:33.058Z,6.72
2018-01-22T13:16:06.624Z,1.95
2018-01-22T13:18:40.930Z,0.55
2018-01-22T13:21:14.483Z,0.60
2018-01-22T13:23:48.164Z,0.60
2018-01-22T13:26:22.559Z,0.40
2018-01-22T13:28:56.981Z,6.10
2018-01-22T13:31:30.499Z,3.67
2018-01-22T13:34:04.807Z,7.80
2018-01-22T13:36:38.433Z,0.70
2018-01-22T13:39:12.001Z,1.77
2018-01-22T13:41:45.518Z,0.70
2018-01-22T13:44:19.079Z,16.00
2018-01-22T13:46:52.778Z,2.42
2018-01-22T13:49:26.338Z,3.80
2018-01-22T13:51:59.902Z,1.62
2018-01-22T13:54:33.483Z,2.60
2018-01-22T13:57:07.802Z,7.35
2018-01-22T13:59:41.530Z,1.95
2018-01-22T14:02:15.016Z,1.58
2018-01-22T14:04:48.542Z,3.17
2018-01-22T14:07:22.104Z,17.95
2018-01-22T14:09:55.741Z,10.25
2018-01-22T14:12:29.420Z,40.45
2018-01-22T14:15:03.021Z,15.27
2018-01-22T14:17:36.627Z,14.07
2018-01-22T14:20:10.195Z,16.65
2018-01-22T14:22:43.749Z,20.00
2018-01-22T14:25:17.314Z,27.20
2018-01-22T14:27:51.063Z,7.85
2018-01-22T14:30:24.671Z,28.62
2018-01-22T14:32:58.336Z,35.42
2018-01-22T14:35:32.463Z,80.20
2018-01-22T14:38:06.115Z,10.70
2018-01-22T14:40:39.634Z,14.98
2018-01-22T14:43:13.118Z,20.60
2018-01-22T14:45:46.851Z,18.12
2018-01-22T14:48:20.461Z,24.30
2018-01-22T14:50:54.159Z,11.68
2018-01-22T14:53:27.739Z,28.08
2018-01-22T14:56:01.440Z,9.52
2018-01-22T14:58:34.967Z,8.93
2018-01-22T15:01:08.539Z,3.20
2018-01-22T15:03:42.098Z,5.55
2018-01-22T15:06:15.830Z,44.05
2018-01-22T15:08:49.447Z,46.88
2018-01-22T15:11:23.781Z,40.12
2018-01-22T15:13:57.374Z,59.47
2018-01-22T15:16:30.914Z,40.63
2018-01-22T15:19:04.466Z,37.25
2018-01-22T15:21:38.225Z,17.75
2018-01-22T15:24:11.793Z,22.25
2018-01-22T15:26:46.203Z,25.60
2018-01-22T15:29:19.803Z,63.55
2018-01-22T15:31:53.322Z,20.90
2018-01-22T15:34:27.012Z,34.80
2018-01-22T15:37:00.574Z,40.65
2018-01-22T15:39:34.194Z,68.93
2018-01-22T15:42:07.731Z,51.20
2018-01-22T15:44:41.431Z,60.15
2018-01-22T15:47:14.992Z,39.03
2018-01-22T15:49:48.586Z,56.58
2018-01-22T15:52:22.198Z,52.13
2018-01-22T15:54:55.771Z,108.43
2018-01-22T15:57:30.135Z,125.40
2018-01-22T16:00:03.827Z,166.93
2018-01-22T16:02:37.414Z,149.75
2018-01-22T16:05:11.047Z,184.55
2018-01-22T16:07:44.616Z,144.35
2018-01-22T16:10:18.332Z,151.32
2018-01-22T16:12:51.974Z,182.40
2018-01-22T16:15:25.536Z,149.35
2018-01-22T16:17:59.102Z,104.20
2018-01-22T16:20:33.368Z,107.10
2018-01-22T16:23:07.775Z,133.95
2018-01-22T16:25:42.090Z,59.42
2018-01-22T16:28:15.776Z,176.27
2018-01-22T16:30:49.381Z,246.82
2018-01-22T16:33:22.922Z,111.43
2018-01-22T16:35:56.514Z,66.50
2018-01-22T16:38:30.105Z,58.30
2018-01-22T16:41:03.811Z,55.53
2018-01-22T16:43:37.396Z,91.72
2018-01-22T16:46:11.094Z,147.62
2018-01-22T16:48:44.608Z,114.57
2018-01-22T16:51:18.925Z,52.38
2018-01-22T16:53:53.224Z,142.80
2018-01-22T16:56:27.056Z,308.38
2018-01-22T16:59:00.563Z,27.62
2018-01-22T17:01:34.255Z,39.92
2018-01-22T17:04:07.827Z,168.37
2018-01-22T17:06:41.375Z,67.22
2018-01-22T17:09:14.931Z,91.35
2018-01-22T17:11:49.340Z,156.00
2018-01-22T17:14:22.874Z,136.20
2018-01-22T17:16:56.447Z,69.85
2018-01-22T17:19:30.781Z,65.90
2018-01-22T17:22:04.394Z,67.75
2018-01-22T17:24:38.095Z,31.83
2018-01-22T17:27:11.659Z,37.38
2018-01-22T17:29:45.999Z,36.22
2018-01-22T17:32:19.672Z,126.20
2018-01-22T17:34:53.227Z,30.48
2018-01-22T17:37:26.773Z,41.03
2018-01-22T17:40:00.343Z,28.17
2018-01-22T17:42:33.907Z,23.80
2018-01-22T17:45:07.461Z,111.68
2018-01-22T17:47:41.183Z,29.15
2018-01-22T17:50:25.616Z,47.62
2018-01-22T17:52:59.326Z,56.05
2018-01-22T17:55:34.763Z,31.67
2018-01-22T17:58:08.326Z,21.10
2018-01-22T18:00:42.670Z,19.40
2018-01-22T18:03:16.321Z,22.83
2018-01-22T18:05:49.854Z,13.60
2018-01-22T18:08:23.360Z,17.70
2018-01-22T18:10:57.869Z,28.33
2018-01-22T18:13:31.588Z,48.40
2018-01-22T18:16:05.147Z,32.80
2018-01-22T18:18:38.748Z,20.52
2018-01-22T18:21:12.383Z,9.80
2018-01-22T18:23:46.975Z,7.53
2018-01-22T18:26:20.820Z,8.98
2018-01-22T18:28:54.583Z,7.22
2018-01-22T18:31:28.184Z,7.40
2018-01-22T18:34:01.762Z,6.93
2018-01-22T18:36:35.415Z,3.40
2018-01-22T18:39:08.940Z,7.05
2018-01-22T18:41:42.496Z,13.43
2018-01-22T18:44:15.980Z,25.20
2018-01-22T18:46:49.579Z,26.62
2018-01-22T18:49:26.138Z,41.22
2018-01-22T18:51:59.700Z,47.58
2018-01-22T18:54:33.395Z,30.52
2018-01-22T18:57:06.947Z,17.95
2018-01-22T18:59:40.595Z,12.02
2018-01-22T19:02:14.280Z,5.68
2018-01-22T19:05:12.599Z,21.45
2018-01-22T19:07:46.987Z,13.85
2018-01-22T19:10:20.719Z,18.83
2018-01-22T19:12:54.500Z,32.00
2018-01-22T19:15:28.151Z,13.18
2018-01-22T19:18:01.741Z,16.92
2018-01-22T19:20:35.413Z,11.85
2018-01-22T19:23:09.154Z,12.20
2018-01-22T19:25:42.835Z,16.77
2018-01-22T19:28:16.684Z,19.17
2018-01-22T19:30:51.133Z,21.33
2018-01-22T19:33:24.946Z,12.65
2018-01-22T19:35:58.737Z,14.15
2018-01-22T19:38:32.415Z,20.10
2018-01-22T19:41:07.118Z,21.00
2018-01-22T19:43:40.733Z,21.73
2018-01-22T19:46:15.301Z,16.25
2018-01-22T19:48:48.914Z,15.65
2018-01-22T19:51:22.632Z,13.40
2018-01-22T19:53:58.236Z,11.00
2018-01-22T19:56:32.377Z,12.05
2018-01-22T19:59:06.146Z,25.20
2018-01-22T20:01:39.888Z,35.83
2018-01-22T20:04:14.509Z,14.35
2018-01-22T20:16:07.857Z,16.65
2018-01-22T20:18:42.673Z,16.10
2018-01-22T20:21:18.248Z,17.30
2018-01-22T20:23:52.209Z,20.62
2018-01-22T20:26:27.473Z,30.70
2018-01-22T20:29:01.983Z,28.48
2018-01-22T20:31:43.726Z,36.03
2018-01-22T20:34:17.414Z,11.52
2018-01-22T20:36:52.663Z,12.50
2018-01-22T20:39:30.097Z,11.50
2018-01-22T20:42:04.255Z,14.25
2018-01-22T20:44:38.341Z,15.52
2018-01-22T20:47:12.585Z,27.62
2018-01-22T20:49:47.097Z,36.03
2018-01-22T20:52:20.985Z,30.50
2018-01-22T20:54:55.631Z,17.08
2018-01-22T20:57:29.199Z,8.45
2018-01-22T21:00:02.729Z,9.23
2018-01-22T21:02:36.491Z,6.70
2018-01-22T21:05:10.177Z,4.97
2018-01-22T21:07:43.838Z,6.93
2018-01-22T21:10:17.525Z,4.47
2018-01-22T21:12:51.260Z,5.40
2018-01-22T21:15:24.871Z,11.45
2018-01-22T21:17:58.527Z,63.35
2018-01-22T21:20:32.233Z,36.13
2018-01-22T21:23:05.739Z,34.58
2018-01-22T21:25:39.311Z,7.00
2018-01-22T21:28:12.831Z,7.22
2018-01-22T21:30:46.362Z,3.42
2018-01-22T21:33:20.731Z,9.23
2018-01-22T21:35:54.447Z,9.68
2018-01-22T21:38:28.116Z,10.32
2018-01-22T21:41:01.690Z,7.37
2018-01-22T21:43:35.283Z,14.05
2018-01-22T21:46:08.808Z,3.00
2018-01-22T21:48:43.310Z,4.25
2018-01-22T21:51:17.782Z,3.12
2018-01-22T21:53:52.194Z,2.50
2018-01-22T21:56:25.905Z,1.00
2018-01-22T21:59:00.175Z,0.80
2018-01-22T22:01:36.546Z,0.60
2018-01-22T22:04:10.983Z,0.68
2018-01-22T22:06:45.390Z,0.60
2018-01-22T22:09:19.744Z,1.27
2018-01-22T22:11:54.032Z,0.95
2018-01-22T22:14:28.343Z,0.68
2018-01-22T22:17:02.751Z,12.37
2018-01-22T22:19:36.486Z,36.47
2018-01-22T22:22:10.094Z,60.67
2018-01-22T22:24:43.656Z,29.98
2018-01-22T22:27:17.246Z,7.93
2018-01-22T22:29:50.763Z,5.37
2018-01-22T22:32:25.060Z,0.50
2018-01-22T22:34:58.638Z,0.70
2018-01-22T22:37:32.198Z,0.50
2018-01-22T22:40:05.750Z,0.60
2018-01-22T22:42:40.128Z,0.70
2018-01-22T22:45:13.651Z,0.55
2018-01-22T22:47:47.293Z,0.93
2018-01-22T22:50:20.793Z,0.60
2018-01-22T22:52:54.307Z,0.75
2018-01-22T22:55:28.690Z,0.68
2018-01-22T22:58:02.375Z,0.60
2018-01-22T23:00:36.631Z,0.73
2018-01-22T23:03:10.251Z,0.65
2018-01-22T23:05:44.039Z,0.50
2018-01-22T23:08:17.614Z,0.60
2018-01-22T23:10:51.222Z,1.17
2018-01-22T23:13:24.832Z,2.05
2018-01-22T23:15:58.355Z,0.85
2018-01-22T23:18:31.915Z,3.25
2018-01-22T23:21:05.444Z,14.65
2018-01-22T23:23:39.047Z,46.15
2018-01-22T23:26:13.343Z,12.95
2018-01-22T23:28:46.849Z,14.87
2018-01-22T23:31:20.366Z,7.00
2018-01-22T23:33:54.128Z,6.60
2018-01-22T23:36:27.727Z,6.65
2018-01-22T23:39:01.388Z,7.20
2018-01-22T23:41:35.692Z,5.45
2018-01-22T23:44:10.095Z,15.20
2018-01-22T23:46:43.607Z,8.38
2018-01-22T23:49:17.999Z,8.57
2018-01-22T23:51:51.713Z,10.52
2018-01-22T23:54:25.243Z,13.52
2018-01-22T23:56:58.784Z,12.70
2018-01-22T23:59:33.214Z,15.32
